sensor_id;sensor_type;location;lat;lon;timestamp;temperature;humidity
22071;DHT22;11200;51.488;6.668;2023-05-16T00:00:13;13.00;99.90
22071;DHT22;11200;51.488;6.668;2023-05-16T00:02:39;13.00;99.90
22071;DHT22;11200;51.488;6.668;2023-05-16T00:05:06;12.90;99.90
22071;DHT22;11200;51.488;6.668;2023-05-16T00:07:51;12.90;99.90
22071;DHT22;11200;51.488;6.668;2023-05-16T00:10:17;12.90;99.90
22071;DHT22;11200;51.488;6.668;2023-05-16T00:12:42;12.80;99.90
22071;DHT22;11200;51.488;6.668;2023-05-16T00:15:10;12.80;99.90
22071;DHT22;11200;51.488;6.668;2023-05-16T00:17:39;12.80;99.90
22071;DHT22;11200;51.488;6.668;2023-05-16T00:20:06;12.80;99.90
22071;DHT22;11200;51.488;6.668;2023-05-16T00:22:36;12.70;99.90
22071;DHT22;11200;51.488;6.668;2023-05-16T00:25:01;12.70;99.90
22071;DHT22;11200;51.488;6.668;2023-05-16T00:27:27;12.70;99.90
22071;DHT22;11200;51.488;6.668;2023-05-16T00:29:54;12.70;99.90
22071;DHT22;11200;51.488;6.668;2023-05-16T00:32:19;12.60;99.90
22071;DHT22;11200;51.488;6.668;2023-05-16T00:34:45;12.60;99.90
22071;DHT22;11200;51.488;6.668;2023-05-16T00:37:11;12.60;99.90
22071;DHT22;11200;51.488;6.668;2023-05-16T00:39:40;12.60;99.90
22071;DHT22;11200;51.488;6.668;2023-05-16T00:42:05;12.50;99.90
22071;DHT22;11200;51.488;6.668;2023-05-16T00:44:33;12.70;99.90
22071;DHT22;11200;51.488;6.668;2023-05-16T00:46:58;12.50;99.90
22071;DHT22;11200;51.488;6.668;2023-05-16T00:49:27;12.40;99.90
22071;DHT22;11200;51.488;6.668;2023-05-16T00:51:53;12.40;99.90
22071;DHT22;11200;51.488;6.668;2023-05-16T00:54:23;12.40;99.90
22071;DHT22;11200;51.488;6.668;2023-05-16T00:56:51;12.40;99.90
22071;DHT22;11200;51.488;6.668;2023-05-16T00:59:18;12.30;99.90
22071;DHT22;11200;51.488;6.668;2023-05-16T01:01:47;12.30;99.90
22071;DHT22;11200;51.488;6.668;2023-05-16T01:04:13;12.30;99.90
22071;DHT22;11200;51.488;6.668;2023-05-16T01:06:39;12.20;99.90
22071;DHT22;11200;51.488;6.668;2023-05-16T01:09:05;12.20;99.90
22071;DHT22;11200;51.488;6.668;2023-05-16T01:11:37;12.20;99.90
22071;DHT22;11200;51.488;6.668;2023-05-16T01:17:02;12.10;99.90
22071;DHT22;11200;51.488;6.668;2023-05-16T01:25:39;12.00;99.90
22071;DHT22;11200;51.488;6.668;2023-05-16T01:28:16;12.00;99.90
22071;DHT22;11200;51.488;6.668;2023-05-16T01:30:42;12.00;99.90
22071;DHT22;11200;51.488;6.668;2023-05-16T01:33:08;12.00;99.90
22071;DHT22;11200;51.488;6.668;2023-05-16T01:35:51;11.90;99.90
22071;DHT22;11200;51.488;6.668;2023-05-16T01:38:26;11.90;99.90
22071;DHT22;11200;51.488;6.668;2023-05-16T01:41:08;11.90;99.90
22071;DHT22;11200;51.488;6.668;2023-05-16T01:43:59;11.90;99.90
22071;DHT22;11200;51.488;6.668;2023-05-16T01:46:31;11.80;99.90
22071;DHT22;11200;51.488;6.668;2023-05-16T01:49:14;11.80;99.90
22071;DHT22;11200;51.488;6.668;2023-05-16T01:52:18;11.80;99.90
22071;DHT22;11200;51.488;6.668;2023-05-16T01:54:47;11.70;99.90
22071;DHT22;11200;51.488;6.668;2023-05-16T01:57:15;11.70;99.90
22071;DHT22;11200;51.488;6.668;2023-05-16T01:59:41;11.60;99.90
22071;DHT22;11200;51.488;6.668;2023-05-16T02:02:07;11.60;99.90
22071;DHT22;11200;51.488;6.668;2023-05-16T02:04:34;11.60;99.90
22071;DHT22;11200;51.488;6.668;2023-05-16T02:07:00;11.60;99.90
22071;DHT22;11200;51.488;6.668;2023-05-16T02:09:26;11.60;99.90
22071;DHT22;11200;51.488;6.668;2023-05-16T02:11:52;11.60;99.90
22071;DHT22;11200;51.488;6.668;2023-05-16T02:14:18;11.50;99.90
22071;DHT22;11200;51.488;6.668;2023-05-16T02:16:43;11.50;99.90
22071;DHT22;11200;51.488;6.668;2023-05-16T02:19:09;11.50;99.90
22071;DHT22;11200;51.488;6.668;2023-05-16T02:21:35;11.50;99.90
22071;DHT22;11200;51.488;6.668;2023-05-16T02:24:00;11.40;99.90
22071;DHT22;11200;51.488;6.668;2023-05-16T02:26:26;11.40;99.90
22071;DHT22;11200;51.488;6.668;2023-05-16T02:28:51;11.40;99.90
22071;DHT22;11200;51.488;6.668;2023-05-16T02:31:28;11.40;99.90
22071;DHT22;11200;51.488;6.668;2023-05-16T02:33:55;11.40;99.90
22071;DHT22;11200;51.488;6.668;2023-05-16T02:36:20;11.30;99.90
22071;DHT22;11200;51.488;6.668;2023-05-16T02:38:46;11.30;99.90
22071;DHT22;11200;51.488;6.668;2023-05-16T02:41:12;11.30;99.90
22071;DHT22;11200;51.488;6.668;2023-05-16T02:43:37;11.20;99.90
22071;DHT22;11200;51.488;6.668;2023-05-16T02:46:26;11.20;99.90
22071;DHT22;11200;51.488;6.668;2023-05-16T02:48:52;11.20;99.90
22071;DHT22;11200;51.488;6.668;2023-05-16T02:51:23;11.20;99.90
22071;DHT22;11200;51.488;6.668;2023-05-16T02:53:50;11.20;99.90
22071;DHT22;11200;51.488;6.668;2023-05-16T02:56:15;11.20;99.90
22071;DHT22;11200;51.488;6.668;2023-05-16T02:58:42;11.10;99.90
22071;DHT22;11200;51.488;6.668;2023-05-16T03:01:08;11.10;99.90
22071;DHT22;11200;51.488;6.668;2023-05-16T03:03:35;11.10;99.90
22071;DHT22;11200;51.488;6.668;2023-05-16T03:06:02;11.10;99.90
22071;DHT22;11200;51.488;6.668;2023-05-16T03:08:28;11.10;99.90
22071;DHT22;11200;51.488;6.668;2023-05-16T03:10:53;11.00;99.90
22071;DHT22;11200;51.488;6.668;2023-05-16T03:13:19;11.10;99.90
22071;DHT22;11200;51.488;6.668;2023-05-16T03:15:45;11.00;99.90
22071;DHT22;11200;51.488;6.668;2023-05-16T03:18:10;10.90;99.90
22071;DHT22;11200;51.488;6.668;2023-05-16T03:20:37;10.90;99.90
22071;DHT22;11200;51.488;6.668;2023-05-16T03:23:02;10.80;99.90
22071;DHT22;11200;51.488;6.668;2023-05-16T03:25:33;10.80;99.90
22071;DHT22;11200;51.488;6.668;2023-05-16T03:27:58;10.80;99.90
22071;DHT22;11200;51.488;6.668;2023-05-16T03:30:24;10.80;99.90
22071;DHT22;11200;51.488;6.668;2023-05-16T03:32:51;10.80;99.90
22071;DHT22;11200;51.488;6.668;2023-05-16T03:35:16;10.70;99.90
22071;DHT22;11200;51.488;6.668;2023-05-16T03:37:42;10.70;99.90
22071;DHT22;11200;51.488;6.668;2023-05-16T03:40:08;10.60;99.90
22071;DHT22;11200;51.488;6.668;2023-05-16T03:42:35;10.60;99.90
22071;DHT22;11200;51.488;6.668;2023-05-16T03:45:04;10.60;99.90
22071;DHT22;11200;51.488;6.668;2023-05-16T03:47:31;10.60;99.90
22071;DHT22;11200;51.488;6.668;2023-05-16T03:49:56;10.50;99.90
22071;DHT22;11200;51.488;6.668;2023-05-16T03:52:22;10.50;99.90
22071;DHT22;11200;51.488;6.668;2023-05-16T03:54:48;10.50;99.90
22071;DHT22;11200;51.488;6.668;2023-05-16T03:57:13;10.40;99.90
22071;DHT22;11200;51.488;6.668;2023-05-16T03:59:39;10.40;99.90
22071;DHT22;11200;51.488;6.668;2023-05-16T04:02:08;10.30;99.90
22071;DHT22;11200;51.488;6.668;2023-05-16T04:04:36;10.40;99.90
22071;DHT22;11200;51.488;6.668;2023-05-16T04:07:02;10.30;99.90
22071;DHT22;11200;51.488;6.668;2023-05-16T04:09:51;10.20;99.90
22071;DHT22;11200;51.488;6.668;2023-05-16T04:12:16;9.90;99.90
22071;DHT22;11200;51.488;6.668;2023-05-16T04:14:42;10.20;99.90
22071;DHT22;11200;51.488;6.668;2023-05-16T04:17:08;10.20;99.90
22071;DHT22;11200;51.488;6.668;2023-05-16T04:19:33;10.20;99.90
22071;DHT22;11200;51.488;6.668;2023-05-16T04:21:59;10.10;99.90
22071;DHT22;11200;51.488;6.668;2023-05-16T04:24:25;9.70;99.90
22071;DHT22;11200;51.488;6.668;2023-05-16T04:26:53;10.10;99.90
22071;DHT22;11200;51.488;6.668;2023-05-16T04:29:19;10.00;99.90
22071;DHT22;11200;51.488;6.668;2023-05-16T04:31:46;10.00;99.90
22071;DHT22;11200;51.488;6.668;2023-05-16T04:34:11;10.00;99.90
22071;DHT22;11200;51.488;6.668;2023-05-16T04:36:37;9.90;99.90
22071;DHT22;11200;51.488;6.668;2023-05-16T04:39:03;9.90;99.90
22071;DHT22;11200;51.488;6.668;2023-05-16T04:41:29;10.00;99.90
22071;DHT22;11200;51.488;6.668;2023-05-16T04:43:57;9.90;99.90
22071;DHT22;11200;51.488;6.668;2023-05-16T04:46:23;9.80;99.90
22071;DHT22;11200;51.488;6.668;2023-05-16T04:48:49;9.80;99.90
22071;DHT22;11200;51.488;6.668;2023-05-16T04:51:14;9.80;99.90
22071;DHT22;11200;51.488;6.668;2023-05-16T04:53:40;9.90;99.90
22071;DHT22;11200;51.488;6.668;2023-05-16T04:56:08;9.70;99.90
22071;DHT22;11200;51.488;6.668;2023-05-16T04:58:34;9.90;99.90
22071;DHT22;11200;51.488;6.668;2023-05-16T05:00:59;9.70;99.90
22071;DHT22;11200;51.488;6.668;2023-05-16T05:03:25;9.70;99.90
22071;DHT22;11200;51.488;6.668;2023-05-16T05:05:50;9.80;99.90
22071;DHT22;11200;51.488;6.668;2023-05-16T05:08:17;9.60;99.90
22071;DHT22;11200;51.488;6.668;2023-05-16T05:10:43;9.70;99.90
22071;DHT22;11200;51.488;6.668;2023-05-16T05:13:10;9.60;99.90
22071;DHT22;11200;51.488;6.668;2023-05-16T05:15:35;9.60;99.90
22071;DHT22;11200;51.488;6.668;2023-05-16T05:18:01;9.80;99.90
22071;DHT22;11200;51.488;6.668;2023-05-16T05:20:26;9.60;99.90
22071;DHT22;11200;51.488;6.668;2023-05-16T05:22:52;9.60;99.90
22071;DHT22;11200;51.488;6.668;2023-05-16T05:25:18;9.60;99.90
22071;DHT22;11200;51.488;6.668;2023-05-16T05:27:45;9.50;99.90
22071;DHT22;11200;51.488;6.668;2023-05-16T05:30:13;9.70;99.90
22071;DHT22;11200;51.488;6.668;2023-05-16T05:32:39;9.50;99.90
22071;DHT22;11200;51.488;6.668;2023-05-16T05:35:08;9.60;99.90
22071;DHT22;11200;51.488;6.668;2023-05-16T05:37:34;9.50;99.90
22071;DHT22;11200;51.488;6.668;2023-05-16T05:40:01;9.50;99.90
22071;DHT22;11200;51.488;6.668;2023-05-16T05:42:28;9.50;99.90
22071;DHT22;11200;51.488;6.668;2023-05-16T05:44:54;9.50;99.90
22071;DHT22;11200;51.488;6.668;2023-05-16T05:47:20;9.50;99.90
22071;DHT22;11200;51.488;6.668;2023-05-16T05:49:46;9.50;99.90
22071;DHT22;11200;51.488;6.668;2023-05-16T05:52:12;9.50;99.90
22071;DHT22;11200;51.488;6.668;2023-05-16T05:54:38;9.50;99.90
22071;DHT22;11200;51.488;6.668;2023-05-16T05:57:03;9.50;99.90
22071;DHT22;11200;51.488;6.668;2023-05-16T05:59:29;9.50;99.90
22071;DHT22;11200;51.488;6.668;2023-05-16T06:01:55;9.60;99.90
22071;DHT22;11200;51.488;6.668;2023-05-16T06:04:21;9.50;99.90
22071;DHT22;11200;51.488;6.668;2023-05-16T06:06:47;9.50;99.90
22071;DHT22;11200;51.488;6.668;2023-05-16T06:09:13;9.60;99.90
22071;DHT22;11200;51.488;6.668;2023-05-16T06:11:40;9.60;99.90
22071;DHT22;11200;51.488;6.668;2023-05-16T06:14:05;9.50;99.90
22071;DHT22;11200;51.488;6.668;2023-05-16T06:16:31;9.60;99.90
22071;DHT22;11200;51.488;6.668;2023-05-16T06:18:57;9.60;99.90
22071;DHT22;11200;51.488;6.668;2023-05-16T06:21:23;9.70;99.90
22071;DHT22;11200;51.488;6.668;2023-05-16T06:23:49;9.80;99.90
22071;DHT22;11200;51.488;6.668;2023-05-16T06:26:14;9.70;99.90
22071;DHT22;11200;51.488;6.668;2023-05-16T06:28:40;9.70;99.90
22071;DHT22;11200;51.488;6.668;2023-05-16T06:31:05;9.70;99.90
22071;DHT22;11200;51.488;6.668;2023-05-16T06:33:33;9.70;99.90
22071;DHT22;11200;51.488;6.668;2023-05-16T06:35:59;9.70;99.90
22071;DHT22;11200;51.488;6.668;2023-05-16T06:38:25;9.80;99.90
22071;DHT22;11200;51.488;6.668;2023-05-16T06:40:50;9.80;99.90
22071;DHT22;11200;51.488;6.668;2023-05-16T06:43:16;9.80;99.90
22071;DHT22;11200;51.488;6.668;2023-05-16T06:45:43;9.80;99.90
22071;DHT22;11200;51.488;6.668;2023-05-16T06:48:09;9.90;99.90
22071;DHT22;11200;51.488;6.668;2023-05-16T06:50:35;10.00;99.90
22071;DHT22;11200;51.488;6.668;2023-05-16T06:53:01;9.90;99.90
22071;DHT22;11200;51.488;6.668;2023-05-16T06:55:29;9.90;99.90
22071;DHT22;11200;51.488;6.668;2023-05-16T06:57:55;10.00;99.90
22071;DHT22;11200;51.488;6.668;2023-05-16T07:00:20;9.80;99.90
22071;DHT22;11200;51.488;6.668;2023-05-16T07:02:46;9.90;99.90
22071;DHT22;11200;51.488;6.668;2023-05-16T07:05:12;10.00;99.90
22071;DHT22;11200;51.488;6.668;2023-05-16T07:07:37;10.00;99.90
22071;DHT22;11200;51.488;6.668;2023-05-16T07:10:03;10.00;99.90
22071;DHT22;11200;51.488;6.668;2023-05-16T07:12:29;10.00;99.90
22071;DHT22;11200;51.488;6.668;2023-05-16T07:14:55;10.00;99.90
22071;DHT22;11200;51.488;6.668;2023-05-16T07:17:21;10.10;99.90
22071;DHT22;11200;51.488;6.668;2023-05-16T07:19:48;10.20;99.90
22071;DHT22;11200;51.488;6.668;2023-05-16T07:22:13;10.20;99.90
22071;DHT22;11200;51.488;6.668;2023-05-16T07:24:39;10.20;99.90
22071;DHT22;11200;51.488;6.668;2023-05-16T07:27:05;10.20;99.90
22071;DHT22;11200;51.488;6.668;2023-05-16T07:29:31;10.30;99.90
22071;DHT22;11200;51.488;6.668;2023-05-16T07:31:56;10.40;99.90
22071;DHT22;11200;51.488;6.668;2023-05-16T07:34:22;10.40;99.90
22071;DHT22;11200;51.488;6.668;2023-05-16T07:36:47;10.50;99.90
22071;DHT22;11200;51.488;6.668;2023-05-16T07:39:13;10.60;99.90
22071;DHT22;11200;51.488;6.668;2023-05-16T07:41:39;10.70;99.90
22071;DHT22;11200;51.488;6.668;2023-05-16T07:44:04;10.80;99.90
22071;DHT22;11200;51.488;6.668;2023-05-16T07:46:30;10.90;99.90
22071;DHT22;11200;51.488;6.668;2023-05-16T07:48:56;11.00;99.90
22071;DHT22;11200;51.488;6.668;2023-05-16T07:51:21;11.10;99.90
22071;DHT22;11200;51.488;6.668;2023-05-16T07:53:47;11.20;99.90
22071;DHT22;11200;51.488;6.668;2023-05-16T07:56:14;11.20;99.90
22071;DHT22;11200;51.488;6.668;2023-05-16T07:58:40;11.30;99.90
22071;DHT22;11200;51.488;6.668;2023-05-16T08:01:06;11.40;99.90
22071;DHT22;11200;51.488;6.668;2023-05-16T08:03:31;11.40;99.90
22071;DHT22;11200;51.488;6.668;2023-05-16T08:05:57;11.40;99.90
22071;DHT22;11200;51.488;6.668;2023-05-16T08:08:23;11.50;99.90
22071;DHT22;11200;51.488;6.668;2023-05-16T08:10:48;11.50;99.90
22071;DHT22;11200;51.488;6.668;2023-05-16T08:13:14;11.50;99.90
22071;DHT22;11200;51.488;6.668;2023-05-16T08:15:39;11.60;99.90
22071;DHT22;11200;51.488;6.668;2023-05-16T08:18:14;11.60;99.90
22071;DHT22;11200;51.488;6.668;2023-05-16T08:20:40;11.60;99.90
22071;DHT22;11200;51.488;6.668;2023-05-16T08:23:07;11.60;99.90
22071;DHT22;11200;51.488;6.668;2023-05-16T08:25:33;11.70;99.90
22071;DHT22;11200;51.488;6.668;2023-05-16T08:28:00;11.70;99.90
22071;DHT22;11200;51.488;6.668;2023-05-16T08:30:27;11.70;99.90
22071;DHT22;11200;51.488;6.668;2023-05-16T08:32:53;11.80;99.90
22071;DHT22;11200;51.488;6.668;2023-05-16T08:35:18;11.90;99.90
22071;DHT22;11200;51.488;6.668;2023-05-16T08:37:44;12.10;99.90
22071;DHT22;11200;51.488;6.668;2023-05-16T08:40:10;12.20;99.90
22071;DHT22;11200;51.488;6.668;2023-05-16T08:42:36;12.30;99.90
22071;DHT22;11200;51.488;6.668;2023-05-16T08:45:02;12.50;99.90
22071;DHT22;11200;51.488;6.668;2023-05-16T08:47:30;12.60;99.90
22071;DHT22;11200;51.488;6.668;2023-05-16T08:49:57;12.80;99.90
22071;DHT22;11200;51.488;6.668;2023-05-16T08:52:26;12.90;99.90
22071;DHT22;11200;51.488;6.668;2023-05-16T08:54:58;13.00;99.90
22071;DHT22;11200;51.488;6.668;2023-05-16T08:57:25;13.20;99.90
22071;DHT22;11200;51.488;6.668;2023-05-16T08:59:51;13.30;99.90
22071;DHT22;11200;51.488;6.668;2023-05-16T09:02:20;13.40;99.90
22071;DHT22;11200;51.488;6.668;2023-05-16T09:04:48;13.60;99.90
22071;DHT22;11200;51.488;6.668;2023-05-16T09:07:14;13.70;99.90
22071;DHT22;11200;51.488;6.668;2023-05-16T09:09:41;13.80;99.90
22071;DHT22;11200;51.488;6.668;2023-05-16T09:12:07;13.90;99.90
22071;DHT22;11200;51.488;6.668;2023-05-16T09:14:32;14.00;99.90
22071;DHT22;11200;51.488;6.668;2023-05-16T09:17:06;14.00;99.90
22071;DHT22;11200;51.488;6.668;2023-05-16T09:19:40;14.10;99.90
22071;DHT22;11200;51.488;6.668;2023-05-16T09:22:08;14.10;99.90
22071;DHT22;11200;51.488;6.668;2023-05-16T09:24:41;14.20;99.90
22071;DHT22;11200;51.488;6.668;2023-05-16T09:27:14;14.20;99.90
22071;DHT22;11200;51.488;6.668;2023-05-16T09:29:41;14.20;99.90
22071;DHT22;11200;51.488;6.668;2023-05-16T09:32:15;14.20;99.90
22071;DHT22;11200;51.488;6.668;2023-05-16T09:34:48;14.20;99.90
22071;DHT22;11200;51.488;6.668;2023-05-16T09:37:16;14.20;99.90
22071;DHT22;11200;51.488;6.668;2023-05-16T09:39:49;14.20;99.90
22071;DHT22;11200;51.488;6.668;2023-05-16T09:42:17;14.10;99.90
22071;DHT22;11200;51.488;6.668;2023-05-16T09:44:48;14.10;99.90
22071;DHT22;11200;51.488;6.668;2023-05-16T09:47:18;14.10;99.90
22071;DHT22;11200;51.488;6.668;2023-05-16T09:49:45;14.10;99.90
22071;DHT22;11200;51.488;6.668;2023-05-16T09:52:13;14.20;99.90
22071;DHT22;11200;51.488;6.668;2023-05-16T09:54:39;14.30;99.90
22071;DHT22;11200;51.488;6.668;2023-05-16T09:57:06;14.40;99.90
22071;DHT22;11200;51.488;6.668;2023-05-16T09:59:38;14.50;99.90
22071;DHT22;11200;51.488;6.668;2023-05-16T10:02:07;14.70;99.90
22071;DHT22;11200;51.488;6.668;2023-05-16T10:04:33;14.90;99.90
22071;DHT22;11200;51.488;6.668;2023-05-16T10:07:02;15.00;99.90
22071;DHT22;11200;51.488;6.668;2023-05-16T10:09:32;15.10;99.90
22071;DHT22;11200;51.488;6.668;2023-05-16T10:12:00;15.20;99.90
22071;DHT22;11200;51.488;6.668;2023-05-16T10:14:36;15.30;99.90
22071;DHT22;11200;51.488;6.668;2023-05-16T10:17:07;15.40;99.90
22071;DHT22;11200;51.488;6.668;2023-05-16T10:19:36;15.30;99.90
22071;DHT22;11200;51.488;6.668;2023-05-16T10:22:04;15.30;99.90
22071;DHT22;11200;51.488;6.668;2023-05-16T10:27:23;15.30;99.90
22071;DHT22;11200;51.488;6.668;2023-05-16T10:29:50;15.30;99.90
22071;DHT22;11200;51.488;6.668;2023-05-16T10:32:17;15.30;99.90
22071;DHT22;11200;51.488;6.668;2023-05-16T10:34:44;15.30;99.90
22071;DHT22;11200;51.488;6.668;2023-05-16T10:37:10;15.50;99.90
22071;DHT22;11200;51.488;6.668;2023-05-16T10:39:37;15.50;99.90
22071;DHT22;11200;51.488;6.668;2023-05-16T10:42:05;15.70;99.90
22071;DHT22;11200;51.488;6.668;2023-05-16T10:44:32;15.90;99.90
22071;DHT22;11200;51.488;6.668;2023-05-16T10:46:59;16.00;99.90
22071;DHT22;11200;51.488;6.668;2023-05-16T10:49:26;16.10;99.90
22071;DHT22;11200;51.488;6.668;2023-05-16T10:54:36;16.50;99.90
22071;DHT22;11200;51.488;6.668;2023-05-16T10:57:08;16.70;99.90
22071;DHT22;11200;51.488;6.668;2023-05-16T10:59:44;16.90;99.90
22071;DHT22;11200;51.488;6.668;2023-05-16T11:02:31;17.10;99.90
22071;DHT22;11200;51.488;6.668;2023-05-16T11:05:01;17.30;99.90
22071;DHT22;11200;51.488;6.668;2023-05-16T11:07:32;17.50;99.90
22071;DHT22;11200;51.488;6.668;2023-05-16T11:10:08;17.70;99.90
22071;DHT22;11200;51.488;6.668;2023-05-16T11:12:49;17.80;99.90
22071;DHT22;11200;51.488;6.668;2023-05-16T11:15:24;17.90;99.90
22071;DHT22;11200;51.488;6.668;2023-05-16T11:18:15;18.10;99.90
22071;DHT22;11200;51.488;6.668;2023-05-16T11:20:42;18.10;99.90
22071;DHT22;11200;51.488;6.668;2023-05-16T11:23:21;18.10;99.90
22071;DHT22;11200;51.488;6.668;2023-05-16T11:25:55;18.10;99.90
22071;DHT22;11200;51.488;6.668;2023-05-16T11:28:22;18.10;99.90
22071;DHT22;11200;51.488;6.668;2023-05-16T11:30:52;18.00;99.90
22071;DHT22;11200;51.488;6.668;2023-05-16T11:33:21;17.90;99.90
22071;DHT22;11200;51.488;6.668;2023-05-16T11:36:07;17.80;99.90
22071;DHT22;11200;51.488;6.668;2023-05-16T11:38:33;17.70;99.90
22071;DHT22;11200;51.488;6.668;2023-05-16T11:41:04;17.70;99.90
22071;DHT22;11200;51.488;6.668;2023-05-16T11:43:45;17.70;99.90
22071;DHT22;11200;51.488;6.668;2023-05-16T11:46:14;17.80;99.90
22071;DHT22;11200;51.488;6.668;2023-05-16T11:48:41;17.80;99.90
22071;DHT22;11200;51.488;6.668;2023-05-16T11:51:07;17.80;99.90
22071;DHT22;11200;51.488;6.668;2023-05-16T11:53:33;17.80;99.90
22071;DHT22;11200;51.488;6.668;2023-05-16T11:55:59;17.90;99.90
22071;DHT22;11200;51.488;6.668;2023-05-16T11:58:26;18.10;99.90
22071;DHT22;11200;51.488;6.668;2023-05-16T12:00:52;18.20;99.90
22071;DHT22;11200;51.488;6.668;2023-05-16T12:03:18;18.30;99.90
22071;DHT22;11200;51.488;6.668;2023-05-16T12:09:23;19.00;99.90
22071;DHT22;11200;51.488;6.668;2023-05-16T12:15:45;19.70;99.90
22071;DHT22;11200;51.488;6.668;2023-05-16T12:28:01;19.50;99.90
22071;DHT22;11200;51.488;6.668;2023-05-16T12:30:28;19.60;99.90
22071;DHT22;11200;51.488;6.668;2023-05-16T12:32:59;19.70;99.90
22071;DHT22;11200;51.488;6.668;2023-05-16T12:35:29;19.70;99.90
22071;DHT22;11200;51.488;6.668;2023-05-16T12:37:55;19.90;99.90
22071;DHT22;11200;51.488;6.668;2023-05-16T12:40:22;20.00;99.90
22071;DHT22;11200;51.488;6.668;2023-05-16T12:42:49;20.00;99.90
22071;DHT22;11200;51.488;6.668;2023-05-16T12:45:16;20.20;99.90
22071;DHT22;11200;51.488;6.668;2023-05-16T12:47:42;20.20;99.90
22071;DHT22;11200;51.488;6.668;2023-05-16T12:50:13;20.40;99.90
22071;DHT22;11200;51.488;6.668;2023-05-16T12:52:49;20.40;99.90
22071;DHT22;11200;51.488;6.668;2023-05-16T12:55:19;20.50;99.90
22071;DHT22;11200;51.488;6.668;2023-05-16T12:57:46;20.60;99.90
22071;DHT22;11200;51.488;6.668;2023-05-16T13:00:13;20.70;99.90
22071;DHT22;11200;51.488;6.668;2023-05-16T13:02:40;20.80;99.90
22071;DHT22;11200;51.488;6.668;2023-05-16T13:05:19;20.80;99.90
22071;DHT22;11200;51.488;6.668;2023-05-16T13:07:48;20.80;99.90
22071;DHT22;11200;51.488;6.668;2023-05-16T13:10:19;20.80;99.90
22071;DHT22;11200;51.488;6.668;2023-05-16T13:12:45;20.80;99.90
22071;DHT22;11200;51.488;6.668;2023-05-16T13:15:12;21.00;99.90
22071;DHT22;11200;51.488;6.668;2023-05-16T13:17:40;20.70;99.90
22071;DHT22;11200;51.488;6.668;2023-05-16T13:20:07;20.70;99.90
22071;DHT22;11200;51.488;6.668;2023-05-16T13:22:35;20.70;99.90
22071;DHT22;11200;51.488;6.668;2023-05-16T13:25:01;20.70;99.90
22071;DHT22;11200;51.488;6.668;2023-05-16T13:27:29;20.70;99.90
22071;DHT22;11200;51.488;6.668;2023-05-16T13:29:55;20.70;99.90
22071;DHT22;11200;51.488;6.668;2023-05-16T13:32:21;20.70;99.90
22071;DHT22;11200;51.488;6.668;2023-05-16T13:34:46;21.30;99.90
22071;DHT22;11200;51.488;6.668;2023-05-16T13:37:12;20.60;99.90
22071;DHT22;11200;51.488;6.668;2023-05-16T13:39:38;20.60;99.90
22071;DHT22;11200;51.488;6.668;2023-05-16T13:42:03;20.50;99.90
22071;DHT22;11200;51.488;6.668;2023-05-16T13:44:29;20.40;99.90
22071;DHT22;11200;51.488;6.668;2023-05-16T13:46:55;20.40;99.90
22071;DHT22;11200;51.488;6.668;2023-05-16T13:49:25;20.30;99.90
22071;DHT22;11200;51.488;6.668;2023-05-16T13:51:51;20.20;99.90
22071;DHT22;11200;51.488;6.668;2023-05-16T13:54:17;20.20;99.90
22071;DHT22;11200;51.488;6.668;2023-05-16T13:56:43;20.10;99.90
22071;DHT22;11200;51.488;6.668;2023-05-16T13:59:09;20.10;99.90
22071;DHT22;11200;51.488;6.668;2023-05-16T14:01:35;20.00;99.90
22071;DHT22;11200;51.488;6.668;2023-05-16T14:04:01;20.00;99.90
22071;DHT22;11200;51.488;6.668;2023-05-16T14:06:27;19.80;99.90
22071;DHT22;11200;51.488;6.668;2023-05-16T14:08:53;19.80;99.90
22071;DHT22;11200;51.488;6.668;2023-05-16T14:11:19;19.70;99.90
22071;DHT22;11200;51.488;6.668;2023-05-16T14:13:47;19.70;99.90
22071;DHT22;11200;51.488;6.668;2023-05-16T14:16:13;19.60;99.90
22071;DHT22;11200;51.488;6.668;2023-05-16T14:18:39;19.50;99.90
22071;DHT22;11200;51.488;6.668;2023-05-16T14:21:08;19.50;99.90
22071;DHT22;11200;51.488;6.668;2023-05-16T14:23:33;19.40;99.90
22071;DHT22;11200;51.488;6.668;2023-05-16T14:25:59;19.30;99.90
22071;DHT22;11200;51.488;6.668;2023-05-16T14:28:25;19.20;99.90
22071;DHT22;11200;51.488;6.668;2023-05-16T14:30:51;19.20;99.90
22071;DHT22;11200;51.488;6.668;2023-05-16T14:33:16;19.10;99.90
22071;DHT22;11200;51.488;6.668;2023-05-16T14:35:42;19.00;99.90
22071;DHT22;11200;51.488;6.668;2023-05-16T14:38:07;19.00;99.90
22071;DHT22;11200;51.488;6.668;2023-05-16T14:40:34;19.00;99.90
22071;DHT22;11200;51.488;6.668;2023-05-16T14:43:00;19.00;99.90
22071;DHT22;11200;51.488;6.668;2023-05-16T14:45:28;18.90;99.90
22071;DHT22;11200;51.488;6.668;2023-05-16T14:47:54;18.80;99.90
22071;DHT22;11200;51.488;6.668;2023-05-16T14:50:20;18.80;99.90
22071;DHT22;11200;51.488;6.668;2023-05-16T14:52:45;18.70;99.90
22071;DHT22;11200;51.488;6.668;2023-05-16T14:55:11;18.60;99.90
22071;DHT22;11200;51.488;6.668;2023-05-16T14:57:37;18.50;99.90
22071;DHT22;11200;51.488;6.668;2023-05-16T15:00:02;18.40;99.90
22071;DHT22;11200;51.488;6.668;2023-05-16T15:02:29;18.30;99.90
22071;DHT22;11200;51.488;6.668;2023-05-16T15:04:55;18.30;99.90
22071;DHT22;11200;51.488;6.668;2023-05-16T15:07:21;18.20;99.90
22071;DHT22;11200;51.488;6.668;2023-05-16T15:09:46;18.20;99.90
22071;DHT22;11200;51.488;6.668;2023-05-16T15:12:12;18.10;99.90
22071;DHT22;11200;51.488;6.668;2023-05-16T15:14:38;18.20;99.90
22071;DHT22;11200;51.488;6.668;2023-05-16T15:17:04;18.00;99.90
22071;DHT22;11200;51.488;6.668;2023-05-16T15:19:29;17.90;99.90
22071;DHT22;11200;51.488;6.668;2023-05-16T15:21:55;17.80;99.90
22071;DHT22;11200;51.488;6.668;2023-05-16T15:24:20;17.70;99.90
22071;DHT22;11200;51.488;6.668;2023-05-16T15:26:46;17.70;99.90
22071;DHT22;11200;51.488;6.668;2023-05-16T15:29:12;17.50;99.90
22071;DHT22;11200;51.488;6.668;2023-05-16T15:31:38;17.40;99.90
22071;DHT22;11200;51.488;6.668;2023-05-16T15:34:03;17.30;99.90
22071;DHT22;11200;51.488;6.668;2023-05-16T15:36:30;17.30;99.90
22071;DHT22;11200;51.488;6.668;2023-05-16T15:38:56;17.20;99.90
22071;DHT22;11200;51.488;6.668;2023-05-16T15:41:22;17.10;99.90
22071;DHT22;11200;51.488;6.668;2023-05-16T15:43:47;17.00;99.90
22071;DHT22;11200;51.488;6.668;2023-05-16T15:46:13;16.90;99.90
22071;DHT22;11200;51.488;6.668;2023-05-16T15:48:39;16.80;99.90
22071;DHT22;11200;51.488;6.668;2023-05-16T15:51:10;16.80;99.90
22071;DHT22;11200;51.488;6.668;2023-05-16T15:53:36;16.70;99.90
22071;DHT22;11200;51.488;6.668;2023-05-16T15:56:02;16.60;99.90
22071;DHT22;11200;51.488;6.668;2023-05-16T15:58:28;16.50;99.90
22071;DHT22;11200;51.488;6.668;2023-05-16T16:00:53;16.50;99.90
22071;DHT22;11200;51.488;6.668;2023-05-16T16:03:20;16.40;99.90
22071;DHT22;11200;51.488;6.668;2023-05-16T16:05:49;16.40;99.90